sensor_id;sensor_type;location;lat;lon;timestamp;P1;durP1;ratioP1;P2;durP2;ratioP2
50647;SDS011;36617;52.002;6.034;2023-01-19T00:00:27;4.20;;;2.20;;
50647;SDS011;36617;52.002;6.034;2023-01-19T00:02:52;4.07;;;2.20;;
50647;SDS011;36617;52.002;6.034;2023-01-19T00:05:18;5.03;;;2.55;;
50647;SDS011;36617;52.002;6.034;2023-01-19T00:07:44;4.30;;;2.20;;
50647;SDS011;36617;52.002;6.034;2023-01-19T00:10:09;4.37;;;2.50;;
50647;SDS011;36617;52.002;6.034;2023-01-19T00:12:35;4.53;;;2.33;;
50647;SDS011;36617;52.002;6.034;2023-01-19T00:15:00;4.20;;;2.30;;
50647;SDS011;36617;52.002;6.034;2023-01-19T00:17:26;4.63;;;2.40;;
50647;SDS011;36617;52.002;6.034;2023-01-19T00:19:51;3.87;;;2.27;;
50647;SDS011;36617;52.002;6.034;2023-01-19T00:22:16;5.17;;;2.40;;
50647;SDS011;36617;52.002;6.034;2023-01-19T00:24:41;5.03;;;2.60;;
50647;SDS011;36617;52.002;6.034;2023-01-19T00:27:06;4.40;;;2.57;;
50647;SDS011;36617;52.002;6.034;2023-01-19T00:29:32;4.33;;;2.20;;
50647;SDS011;36617;52.002;6.034;2023-01-19T00:32:01;4.05;;;2.17;;
50647;SDS011;36617;52.002;6.034;2023-01-19T00:34:27;4.72;;;2.30;;
50647;SDS011;36617;52.002;6.034;2023-01-19T00:37:00;4.88;;;2.30;;
50647;SDS011;36617;52.002;6.034;2023-01-19T00:39:26;4.70;;;2.30;;
50647;SDS011;36617;52.002;6.034;2023-01-19T00:41:52;4.77;;;2.50;;
50647;SDS011;36617;52.002;6.034;2023-01-19T00:44:36;5.03;;;2.47;;
50647;SDS011;36617;52.002;6.034;2023-01-19T00:47:01;4.27;;;2.30;;
50647;SDS011;36617;52.002;6.034;2023-01-19T00:49:28;5.05;;;2.35;;
50647;SDS011;36617;52.002;6.034;2023-01-19T00:51:53;4.63;;;2.40;;
50647;SDS011;36617;52.002;6.034;2023-01-19T00:54:19;4.38;;;2.35;;
50647;SDS011;36617;52.002;6.034;2023-01-19T00:56:44;4.27;;;2.17;;
50647;SDS011;36617;52.002;6.034;2023-01-19T00:59:09;4.07;;;2.37;;
50647;SDS011;36617;52.002;6.034;2023-01-19T01:01:34;4.80;;;2.43;;
50647;SDS011;36617;52.002;6.034;2023-01-19T01:03:59;4.10;;;2.33;;
50647;SDS011;36617;52.002;6.034;2023-01-19T01:06:25;4.60;;;2.30;;
50647;SDS011;36617;52.002;6.034;2023-01-19T01:08:50;4.40;;;2.30;;
50647;SDS011;36617;52.002;6.034;2023-01-19T01:11:16;4.57;;;2.53;;
50647;SDS011;36617;52.002;6.034;2023-01-19T01:13:41;5.00;;;2.40;;
50647;SDS011;36617;52.002;6.034;2023-01-19T01:16:06;4.30;;;2.50;;
50647;SDS011;36617;52.002;6.034;2023-01-19T01:18:33;4.80;;;2.30;;
50647;SDS011;36617;52.002;6.034;2023-01-19T01:21:00;4.33;;;2.50;;
50647;SDS011;36617;52.002;6.034;2023-01-19T01:23:25;4.30;;;2.57;;
50647;SDS011;36617;52.002;6.034;2023-01-19T01:25:50;4.37;;;2.47;;
50647;SDS011;36617;52.002;6.034;2023-01-19T01:28:15;4.37;;;2.40;;
50647;SDS011;36617;52.002;6.034;2023-01-19T01:30:41;4.80;;;2.50;;
50647;SDS011;36617;52.002;6.034;2023-01-19T01:33:07;4.63;;;2.58;;
50647;SDS011;36617;52.002;6.034;2023-01-19T01:35:33;4.55;;;2.63;;
50647;SDS011;36617;52.002;6.034;2023-01-19T01:37:58;4.40;;;2.50;;
50647;SDS011;36617;52.002;6.034;2023-01-19T01:40:24;4.88;;;2.47;;
50647;SDS011;36617;52.002;6.034;2023-01-19T01:42:49;4.80;;;2.60;;
50647;SDS011;36617;52.002;6.034;2023-01-19T01:45:34;4.67;;;2.60;;
50647;SDS011;36617;52.002;6.034;2023-01-19T01:48:01;4.25;;;2.38;;
50647;SDS011;36617;52.002;6.034;2023-01-19T01:50:27;4.50;;;2.30;;
50647;SDS011;36617;52.002;6.034;2023-01-19T01:52:55;5.00;;;2.25;;
50647;SDS011;36617;52.002;6.034;2023-01-19T01:55:22;4.15;;;2.10;;
50647;SDS011;36617;52.002;6.034;2023-01-19T01:57:52;4.47;;;2.37;;
50647;SDS011;36617;52.002;6.034;2023-01-19T02:00:18;4.05;;;2.30;;
50647;SDS011;36617;52.002;6.034;2023-01-19T02:02:43;4.90;;;2.30;;
50647;SDS011;36617;52.002;6.034;2023-01-19T02:05:16;4.03;;;2.10;;
50647;SDS011;36617;52.002;6.034;2023-01-19T02:10:26;4.50;;;2.60;;
50647;SDS011;36617;52.002;6.034;2023-01-19T02:13:09;4.43;;;2.25;;
50647;SDS011;36617;52.002;6.034;2023-01-19T02:15:41;4.68;;;2.50;;
50647;SDS011;36617;52.002;6.034;2023-01-19T02:18:06;4.40;;;2.20;;
50647;SDS011;36617;52.002;6.034;2023-01-19T02:20:31;4.35;;;2.25;;
50647;SDS011;36617;52.002;6.034;2023-01-19T02:23:00;4.70;;;2.33;;
50647;SDS011;36617;52.002;6.034;2023-01-19T02:25:26;4.18;;;2.22;;
50647;SDS011;36617;52.002;6.034;2023-01-19T02:27:51;4.43;;;2.33;;
50647;SDS011;36617;52.002;6.034;2023-01-19T02:30:17;4.35;;;2.28;;
50647;SDS011;36617;52.002;6.034;2023-01-19T02:32:42;3.83;;;2.10;;
50647;SDS011;36617;52.002;6.034;2023-01-19T02:35:08;3.93;;;2.10;;
50647;SDS011;36617;52.002;6.034;2023-01-19T02:37:34;3.92;;;2.10;;
50647;SDS011;36617;52.002;6.034;2023-01-19T02:40:02;4.05;;;2.20;;
50647;SDS011;36617;52.002;6.034;2023-01-19T02:42:35;3.73;;;2.10;;
50647;SDS011;36617;52.002;6.034;2023-01-19T02:45:01;4.53;;;2.10;;
50647;SDS011;36617;52.002;6.034;2023-01-19T02:48:04;4.13;;;2.10;;
50647;SDS011;36617;52.002;6.034;2023-01-19T02:52:58;3.42;;;1.80;;
50647;SDS011;36617;52.002;6.034;2023-01-19T02:55:28;3.47;;;1.88;;
50647;SDS011;36617;52.002;6.034;2023-01-19T02:57:58;4.30;;;2.10;;
50647;SDS011;36617;52.002;6.034;2023-01-19T03:00:36;3.75;;;2.03;;
50647;SDS011;36617;52.002;6.034;2023-01-19T03:03:22;3.40;;;1.80;;
50647;SDS011;36617;52.002;6.034;2023-01-19T03:05:51;3.80;;;1.90;;
50647;SDS011;36617;52.002;6.034;2023-01-19T03:15:48;3.80;;;1.90;;
50647;SDS011;36617;52.002;6.034;2023-01-19T03:18:15;3.53;;;1.90;;
50647;SDS011;36617;52.002;6.034;2023-01-19T03:20:43;4.15;;;1.90;;
50647;SDS011;36617;52.002;6.034;2023-01-19T03:23:09;2.97;;;1.67;;
50647;SDS011;36617;52.002;6.034;2023-01-19T03:25:35;3.38;;;1.58;;
50647;SDS011;36617;52.002;6.034;2023-01-19T03:28:02;3.45;;;1.95;;
50647;SDS011;36617;52.002;6.034;2023-01-19T03:30:30;3.28;;;1.70;;
50647;SDS011;36617;52.002;6.034;2023-01-19T03:33:19;3.15;;;1.70;;
50647;SDS011;36617;52.002;6.034;2023-01-19T03:35:43;3.40;;;1.70;;
50647;SDS011;36617;52.002;6.034;2023-01-19T03:38:11;3.22;;;1.70;;
50647;SDS011;36617;52.002;6.034;2023-01-19T03:40:38;2.60;;;1.50;;
50647;SDS011;36617;52.002;6.034;2023-01-19T03:43:04;3.17;;;1.63;;
50647;SDS011;36617;52.002;6.034;2023-01-19T03:45:30;2.58;;;1.42;;
50647;SDS011;36617;52.002;6.034;2023-01-19T03:47:56;3.40;;;1.70;;
50647;SDS011;36617;52.002;6.034;2023-01-19T03:50:26;3.25;;;1.75;;
50647;SDS011;36617;52.002;6.034;2023-01-19T03:53:09;2.97;;;1.50;;
50647;SDS011;36617;52.002;6.034;2023-01-19T03:55:34;1.90;;;1.40;;
50647;SDS011;36617;52.002;6.034;2023-01-19T03:58:01;3.00;;;1.60;;
50647;SDS011;36617;52.002;6.034;2023-01-19T04:00:26;2.43;;;1.40;;
50647;SDS011;36617;52.002;6.034;2023-01-19T04:02:51;2.97;;;1.43;;
50647;SDS011;36617;52.002;6.034;2023-01-19T04:05:16;3.30;;;1.50;;
50647;SDS011;36617;52.002;6.034;2023-01-19T04:07:43;2.25;;;1.30;;
50647;SDS011;36617;52.002;6.034;2023-01-19T04:10:08;2.57;;;1.40;;
50647;SDS011;36617;52.002;6.034;2023-01-19T04:12:36;2.45;;;1.45;;
50647;SDS011;36617;52.002;6.034;2023-01-19T04:15:02;2.50;;;1.30;;
50647;SDS011;36617;52.002;6.034;2023-01-19T04:17:27;2.30;;;1.37;;
50647;SDS011;36617;52.002;6.034;2023-01-19T04:19:52;1.73;;;1.20;;
50647;SDS011;36617;52.002;6.034;2023-01-19T04:22:17;2.53;;;1.30;;
50647;SDS011;36617;52.002;6.034;2023-01-19T04:24:42;2.10;;;1.20;;
50647;SDS011;36617;52.002;6.034;2023-01-19T04:27:07;2.20;;;1.30;;
50647;SDS011;36617;52.002;6.034;2023-01-19T04:29:33;1.73;;;1.10;;
50647;SDS011;36617;52.002;6.034;2023-01-19T04:31:58;1.90;;;1.10;;
50647;SDS011;36617;52.002;6.034;2023-01-19T04:34:23;2.23;;;1.20;;
50647;SDS011;36617;52.002;6.034;2023-01-19T04:36:48;2.13;;;1.10;;
50647;SDS011;36617;52.002;6.034;2023-01-19T04:39:15;1.77;;;0.95;;
50647;SDS011;36617;52.002;6.034;2023-01-19T04:41:40;1.80;;;1.10;;
50647;SDS011;36617;52.002;6.034;2023-01-19T04:44:05;1.93;;;1.00;;
50647;SDS011;36617;52.002;6.034;2023-01-19T04:46:31;2.40;;;1.10;;
50647;SDS011;36617;52.002;6.034;2023-01-19T04:48:56;2.20;;;1.00;;
50647;SDS011;36617;52.002;6.034;2023-01-19T04:51:21;1.63;;;0.87;;
50647;SDS011;36617;52.002;6.034;2023-01-19T04:53:46;1.57;;;1.00;;
50647;SDS011;36617;52.002;6.034;2023-01-19T04:56:11;2.00;;;0.93;;
50647;SDS011;36617;52.002;6.034;2023-01-19T04:58:36;1.80;;;0.93;;
50647;SDS011;36617;52.002;6.034;2023-01-19T05:01:05;1.90;;;0.90;;
50647;SDS011;36617;52.002;6.034;2023-01-19T05:03:30;2.25;;;1.20;;
50647;SDS011;36617;52.002;6.034;2023-01-19T05:05:56;1.77;;;0.97;;
50647;SDS011;36617;52.002;6.034;2023-01-19T05:08:21;1.20;;;0.90;;
50647;SDS011;36617;52.002;6.034;2023-01-19T05:10:46;2.13;;;1.10;;
50647;SDS011;36617;52.002;6.034;2023-01-19T05:13:12;1.33;;;0.77;;
50647;SDS011;36617;52.002;6.034;2023-01-19T05:15:38;1.88;;;0.85;;
50647;SDS011;36617;52.002;6.034;2023-01-19T05:18:03;1.63;;;0.90;;
50647;SDS011;36617;52.002;6.034;2023-01-19T05:20:28;1.73;;;0.93;;
50647;SDS011;36617;52.002;6.034;2023-01-19T05:22:53;1.40;;;0.85;;
50647;SDS011;36617;52.002;6.034;2023-01-19T05:25:18;1.57;;;0.87;;
50647;SDS011;36617;52.002;6.034;2023-01-19T05:27:44;2.07;;;1.00;;
50647;SDS011;36617;52.002;6.034;2023-01-19T05:30:09;1.27;;;0.80;;
50647;SDS011;36617;52.002;6.034;2023-01-19T05:32:35;1.53;;;0.80;;
50647;SDS011;36617;52.002;6.034;2023-01-19T05:35:00;1.63;;;0.80;;
50647;SDS011;36617;52.002;6.034;2023-01-19T05:37:25;1.25;;;0.80;;
50647;SDS011;36617;52.002;6.034;2023-01-19T05:39:51;1.60;;;0.83;;
50647;SDS011;36617;52.002;6.034;2023-01-19T05:42:16;1.15;;;0.73;;
50647;SDS011;36617;52.002;6.034;2023-01-19T05:44:41;1.70;;;0.90;;
50647;SDS011;36617;52.002;6.034;2023-01-19T05:47:07;1.80;;;0.83;;
50647;SDS011;36617;52.002;6.034;2023-01-19T05:49:32;1.17;;;0.80;;
50647;SDS011;36617;52.002;6.034;2023-01-19T05:51:57;1.37;;;0.83;;
50647;SDS011;36617;52.002;6.034;2023-01-19T05:54:22;1.27;;;0.80;;
50647;SDS011;36617;52.002;6.034;2023-01-19T05:56:47;1.10;;;0.80;;
50647;SDS011;36617;52.002;6.034;2023-01-19T05:59:13;1.23;;;0.70;;
50647;SDS011;36617;52.002;6.034;2023-01-19T06:01:39;1.92;;;0.70;;
50647;SDS011;36617;52.002;6.034;2023-01-19T06:04:05;1.30;;;0.80;;
50647;SDS011;36617;52.002;6.034;2023-01-19T06:06:30;1.20;;;0.75;;
50647;SDS011;36617;52.002;6.034;2023-01-19T06:08:56;1.30;;;0.70;;
50647;SDS011;36617;52.002;6.034;2023-01-19T06:11:21;1.33;;;0.80;;
50647;SDS011;36617;52.002;6.034;2023-01-19T06:13:46;1.90;;;0.80;;
50647;SDS011;36617;52.002;6.034;2023-01-19T06:16:11;1.50;;;0.70;;
50647;SDS011;36617;52.002;6.034;2023-01-19T06:18:37;0.83;;;0.60;;
50647;SDS011;36617;52.002;6.034;2023-01-19T06:21:06;1.33;;;0.60;;
50647;SDS011;36617;52.002;6.034;2023-01-19T06:23:31;1.63;;;0.60;;
50647;SDS011;36617;52.002;6.034;2023-01-19T06:25:57;1.13;;;0.73;;
50647;SDS011;36617;52.002;6.034;2023-01-19T06:28:22;2.00;;;0.80;;
50647;SDS011;36617;52.002;6.034;2023-01-19T06:30:48;1.20;;;0.70;;
50647;SDS011;36617;52.002;6.034;2023-01-19T06:33:14;1.13;;;0.68;;
50647;SDS011;36617;52.002;6.034;2023-01-19T06:35:41;1.35;;;0.70;;
50647;SDS011;36617;52.002;6.034;2023-01-19T06:38:06;1.60;;;0.63;;
50647;SDS011;36617;52.002;6.034;2023-01-19T06:40:32;1.53;;;0.63;;
50647;SDS011;36617;52.002;6.034;2023-01-19T06:42:57;1.00;;;0.50;;
50647;SDS011;36617;52.002;6.034;2023-01-19T06:45:22;2.03;;;0.70;;
50647;SDS011;36617;52.002;6.034;2023-01-19T06:47:47;1.27;;;0.67;;
50647;SDS011;36617;52.002;6.034;2023-01-19T06:50:12;1.53;;;0.60;;
50647;SDS011;36617;52.002;6.034;2023-01-19T06:52:38;2.83;;;0.83;;
50647;SDS011;36617;52.002;6.034;2023-01-19T06:55:06;1.17;;;0.60;;
50647;SDS011;36617;52.002;6.034;2023-01-19T06:57:34;2.28;;;0.70;;
50647;SDS011;36617;52.002;6.034;2023-01-19T06:59:59;1.77;;;0.70;;
50647;SDS011;36617;52.002;6.034;2023-01-19T07:02:26;1.33;;;0.57;;
50647;SDS011;36617;52.002;6.034;2023-01-19T07:04:51;1.27;;;0.70;;
50647;SDS011;36617;52.002;6.034;2023-01-19T07:07:16;2.17;;;0.80;;
50647;SDS011;36617;52.002;6.034;2023-01-19T07:09:41;1.87;;;0.87;;
50647;SDS011;36617;52.002;6.034;2023-01-19T07:12:06;2.07;;;0.73;;
50647;SDS011;36617;52.002;6.034;2023-01-19T07:14:33;1.95;;;0.65;;
50647;SDS011;36617;52.002;6.034;2023-01-19T07:16:58;1.67;;;0.70;;
50647;SDS011;36617;52.002;6.034;2023-01-19T07:19:24;1.80;;;0.80;;
50647;SDS011;36617;52.002;6.034;2023-01-19T07:21:49;2.50;;;0.80;;
50647;SDS011;36617;52.002;6.034;2023-01-19T07:24:14;2.23;;;0.70;;
50647;SDS011;36617;52.002;6.034;2023-01-19T07:26:39;1.97;;;0.70;;
50647;SDS011;36617;52.002;6.034;2023-01-19T07:29:04;2.40;;;0.80;;
50647;SDS011;36617;52.002;6.034;2023-01-19T07:31:29;2.57;;;0.70;;
50647;SDS011;36617;52.002;6.034;2023-01-19T07:33:55;1.90;;;0.60;;
50647;SDS011;36617;52.002;6.034;2023-01-19T07:36:20;2.30;;;0.90;;
50647;SDS011;36617;52.002;6.034;2023-01-19T07:38:45;2.10;;;0.80;;
50647;SDS011;36617;52.002;6.034;2023-01-19T07:41:10;1.77;;;0.70;;
50647;SDS011;36617;52.002;6.034;2023-01-19T07:43:36;1.97;;;0.80;;
50647;SDS011;36617;52.002;6.034;2023-01-19T07:46:02;2.10;;;0.80;;
50647;SDS011;36617;52.002;6.034;2023-01-19T07:48:27;2.05;;;0.80;;
50647;SDS011;36617;52.002;6.034;2023-01-19T07:50:54;2.73;;;0.87;;
50647;SDS011;36617;52.002;6.034;2023-01-19T07:53:22;2.00;;;0.75;;
50647;SDS011;36617;52.002;6.034;2023-01-19T07:55:52;2.13;;;0.80;;
50647;SDS011;36617;52.002;6.034;2023-01-19T07:58:18;3.15;;;0.82;;
50647;SDS011;36617;52.002;6.034;2023-01-19T08:00:43;1.73;;;0.70;;
50647;SDS011;36617;52.002;6.034;2023-01-19T08:03:08;3.00;;;0.97;;
50647;SDS011;36617;52.002;6.034;2023-01-19T08:05:33;2.63;;;0.83;;
50647;SDS011;36617;52.002;6.034;2023-01-19T08:07:59;2.15;;;0.80;;
50647;SDS011;36617;52.002;6.034;2023-01-19T08:10:25;2.37;;;0.70;;
50647;SDS011;36617;52.002;6.034;2023-01-19T08:12:54;2.28;;;0.75;;
50647;SDS011;36617;52.002;6.034;2023-01-19T08:15:20;2.83;;;0.80;;
50647;SDS011;36617;52.002;6.034;2023-01-19T08:17:53;2.53;;;0.93;;
50647;SDS011;36617;52.002;6.034;2023-01-19T08:20:18;2.30;;;0.82;;
50647;SDS011;36617;52.002;6.034;2023-01-19T08:22:45;2.77;;;0.90;;
50647;SDS011;36617;52.002;6.034;2023-01-19T08:25:11;2.65;;;0.75;;
50647;SDS011;36617;52.002;6.034;2023-01-19T08:27:36;2.47;;;0.80;;
50647;SDS011;36617;52.002;6.034;2023-01-19T08:30:01;2.37;;;0.80;;
50647;SDS011;36617;52.002;6.034;2023-01-19T08:32:26;2.60;;;0.90;;
50647;SDS011;36617;52.002;6.034;2023-01-19T08:34:51;2.27;;;0.90;;
50647;SDS011;36617;52.002;6.034;2023-01-19T08:37:17;1.97;;;0.80;;
50647;SDS011;36617;52.002;6.034;2023-01-19T08:39:42;2.87;;;0.80;;
50647;SDS011;36617;52.002;6.034;2023-01-19T08:42:07;1.63;;;0.80;;
50647;SDS011;36617;52.002;6.034;2023-01-19T08:44:32;2.67;;;0.80;;
50647;SDS011;36617;52.002;6.034;2023-01-19T08:46:57;2.60;;;0.80;;
50647;SDS011;36617;52.002;6.034;2023-01-19T08:49:23;2.58;;;0.90;;
50647;SDS011;36617;52.002;6.034;2023-01-19T08:51:49;2.17;;;0.80;;
50647;SDS011;36617;52.002;6.034;2023-01-19T08:54:14;2.37;;;0.87;;
50647;SDS011;36617;52.002;6.034;2023-01-19T08:56:40;2.83;;;0.85;;
50647;SDS011;36617;52.002;6.034;2023-01-19T08:59:06;2.77;;;0.70;;
50647;SDS011;36617;52.002;6.034;2023-01-19T09:01:31;3.27;;;0.90;;
50647;SDS011;36617;52.002;6.034;2023-01-19T09:03:56;3.50;;;1.10;;
50647;SDS011;36617;52.002;6.034;2023-01-19T09:06:21;2.73;;;0.90;;
50647;SDS011;36617;52.002;6.034;2023-01-19T09:08:49;3.20;;;0.90;;
50647;SDS011;36617;52.002;6.034;2023-01-19T09:11:14;2.20;;;0.80;;
50647;SDS011;36617;52.002;6.034;2023-01-19T09:13:40;2.70;;;0.90;;
50647;SDS011;36617;52.002;6.034;2023-01-19T09:16:05;2.97;;;1.00;;
50647;SDS011;36617;52.002;6.034;2023-01-19T09:18:35;2.35;;;0.80;;
50647;SDS011;36617;52.002;6.034;2023-01-19T09:21:00;3.53;;;0.90;;
50647;SDS011;36617;52.002;6.034;2023-01-19T09:23:26;3.30;;;1.05;;
50647;SDS011;36617;52.002;6.034;2023-01-19T09:25:55;2.50;;;0.85;;
50647;SDS011;36617;52.002;6.034;2023-01-19T09:28:20;2.60;;;0.98;;
50647;SDS011;36617;52.002;6.034;2023-01-19T09:30:46;4.20;;;1.20;;
50647;SDS011;36617;52.002;6.034;2023-01-19T09:33:12;3.70;;;1.00;;
50647;SDS011;36617;52.002;6.034;2023-01-19T09:35:38;2.65;;;0.93;;
50647;SDS011;36617;52.002;6.034;2023-01-19T09:38:04;3.43;;;0.90;;
50647;SDS011;36617;52.002;6.034;2023-01-19T09:40:31;2.47;;;0.90;;
50647;SDS011;36617;52.002;6.034;2023-01-19T09:43:02;3.27;;;1.10;;
50647;SDS011;36617;52.002;6.034;2023-01-19T09:45:37;3.72;;;1.00;;
50647;SDS011;36617;52.002;6.034;2023-01-19T09:48:04;3.70;;;0.90;;
50647;SDS011;36617;52.002;6.034;2023-01-19T09:50:32;3.60;;;1.10;;
50647;SDS011;36617;52.002;6.034;2023-01-19T09:53:03;3.40;;;1.23;;
50647;SDS011;36617;52.002;6.034;2023-01-19T09:55:31;3.60;;;1.08;;
50647;SDS011;36617;52.002;6.034;2023-01-19T09:57:57;3.30;;;1.08;;
50647;SDS011;36617;52.002;6.034;2023-01-19T10:00:22;3.17;;;1.10;;
50647;SDS011;36617;52.002;6.034;2023-01-19T10:02:59;2.75;;;1.00;;
50647;SDS011;36617;52.002;6.034;2023-01-19T10:05:43;2.78;;;1.00;;
50647;SDS011;36617;52.002;6.034;2023-01-19T10:08:13;3.42;;;1.13;;
50647;SDS011;36617;52.002;6.034;2023-01-19T10:10:43;3.33;;;1.10;;
50647;SDS011;36617;52.002;6.034;2023-01-19T10:20:38;3.15;;;1.20;;
50647;SDS011;36617;52.002;6.034;2023-01-19T10:23:04;3.33;;;1.17;;
50647;SDS011;36617;52.002;6.034;2023-01-19T10:25:38;3.47;;;0.90;;
50647;SDS011;36617;52.002;6.034;2023-01-19T10:28:04;3.17;;;0.93;;
50647;SDS011;36617;52.002;6.034;2023-01-19T10:30:29;3.63;;;1.00;;
50647;SDS011;36617;52.002;6.034;2023-01-19T10:32:54;3.57;;;1.10;;
50647;SDS011;36617;52.002;6.034;2023-01-19T10:35:21;3.17;;;1.10;;
50647;SDS011;36617;52.002;6.034;2023-01-19T10:37:48;2.85;;;1.00;;
50647;SDS011;36617;52.002;6.034;2023-01-19T10:40:16;2.60;;;0.85;;
50647;SDS011;36617;52.002;6.034;2023-01-19T10:42:43;3.05;;;1.05;;
50647;SDS011;36617;52.002;6.034;2023-01-19T10:45:16;4.57;;;1.20;;
50647;SDS011;36617;52.002;6.034;2023-01-19T10:47:41;3.83;;;1.10;;
50647;SDS011;36617;52.002;6.034;2023-01-19T10:50:25;3.70;;;1.05;;
50647;SDS011;36617;52.002;6.034;2023-01-19T10:52:51;2.95;;;0.98;;
50647;SDS011;36617;52.002;6.034;2023-01-19T10:55:49;3.80;;;1.20;;
50647;SDS011;36617;52.002;6.034;2023-01-19T10:58:25;3.95;;;1.10;;
50647;SDS011;36617;52.002;6.034;2023-01-19T11:00:50;4.00;;;1.10;;
50647;SDS011;36617;52.002;6.034;2023-01-19T11:03:34;3.60;;;1.47;;
50647;SDS011;36617;52.002;6.034;2023-01-19T11:08:40;2.88;;;0.98;;
50647;SDS011;36617;52.002;6.034;2023-01-19T11:11:05;4.05;;;1.17;;
50647;SDS011;36617;52.002;6.034;2023-01-19T11:13:32;2.70;;;1.13;;
50647;SDS011;36617;52.002;6.034;2023-01-19T11:16:13;3.47;;;1.00;;
50647;SDS011;36617;52.002;6.034;2023-01-19T11:18:39;5.28;;;1.25;;
50647;SDS011;36617;52.002;6.034;2023-01-19T11:21:09;3.53;;;1.10;;
50647;SDS011;36617;52.002;6.034;2023-01-19T11:23:40;2.10;;;0.90;;
50647;SDS011;36617;52.002;6.034;2023-01-19T11:26:14;3.97;;;1.10;;
50647;SDS011;36617;52.002;6.034;2023-01-19T11:28:49;3.75;;;1.20;;
50647;SDS011;36617;52.002;6.034;2023-01-19T11:31:16;4.25;;;1.25;;
50647;SDS011;36617;52.002;6.034;2023-01-19T11:33:49;3.27;;;1.10;;
50647;SDS011;36617;52.002;6.034;2023-01-19T11:36:25;2.92;;;1.08;;
50647;SDS011;36617;52.002;6.034;2023-01-19T11:38:51;4.35;;;1.10;;
50647;SDS011;36617;52.002;6.034;2023-01-19T11:41:18;3.63;;;1.10;;
50647;SDS011;36617;52.002;6.034;2023-01-19T11:43:43;3.55;;;1.02;;
50647;SDS011;36617;52.002;6.034;2023-01-19T11:46:10;3.17;;;0.97;;
50647;SDS011;36617;52.002;6.034;2023-01-19T11:48:39;2.95;;;1.10;;
50647;SDS011;36617;52.002;6.034;2023-01-19T11:51:08;3.40;;;1.10;;
50647;SDS011;36617;52.002;6.034;2023-01-19T11:53:35;2.72;;;1.00;;
50647;SDS011;36617;52.002;6.034;2023-01-19T11:56:05;4.38;;;1.20;;
50647;SDS011;36617;52.002;6.034;2023-01-19T11:58:32;3.65;;;1.13;;
50647;SDS011;36617;52.002;6.034;2023-01-19T12:01:02;3.50;;;1.20;;
50647;SDS011;36617;52.002;6.034;2023-01-19T12:03:33;2.85;;;1.13;;
50647;SDS011;36617;52.002;6.034;2023-01-19T12:06:21;4.17;;;1.23;;
50647;SDS011;36617;52.002;6.034;2023-01-19T12:11:30;3.63;;;1.30;;
50647;SDS011;36617;52.002;6.034;2023-01-19T12:13:56;3.88;;;1.10;;
50647;SDS011;36617;52.002;6.034;2023-01-19T12:16:22;3.80;;;1.17;;
50647;SDS011;36617;52.002;6.034;2023-01-19T12:18:55;3.45;;;1.10;;
50647;SDS011;36617;52.002;6.034;2023-01-19T12:21:22;4.35;;;1.20;;
50647;SDS011;36617;52.002;6.034;2023-01-19T12:26:25;3.22;;;1.08;;
50647;SDS011;36617;52.002;6.034;2023-01-19T12:28:52;3.65;;;1.20;;
50647;SDS011;36617;52.002;6.034;2023-01-19T12:31:19;4.75;;;1.30;;
50647;SDS011;36617;52.002;6.034;2023-01-19T12:33:45;3.20;;;1.20;;
50647;SDS011;36617;52.002;6.034;2023-01-19T12:36:33;2.67;;;1.20;;
50647;SDS011;36617;52.002;6.034;2023-01-19T12:39:17;4.65;;;1.20;;
50647;SDS011;36617;52.002;6.034;2023-01-19T12:41:43;3.35;;;1.20;;
50647;SDS011;36617;52.002;6.034;2023-01-19T12:46:54;3.95;;;1.20;;
50647;SDS011;36617;52.002;6.034;2023-01-19T12:52:12;4.63;;;1.50;;
50647;SDS011;36617;52.002;6.034;2023-01-19T12:54:42;4.05;;;1.50;;
50647;SDS011;36617;52.002;6.034;2023-01-19T12:57:16;4.95;;;1.60;;
50647;SDS011;36617;52.002;6.034;2023-01-19T12:59:43;3.53;;;1.23;;
50647;SDS011;36617;52.002;6.034;2023-01-19T13:15:43;3.97;;;1.30;;
50647;SDS011;36617;52.002;6.034;2023-01-19T13:18:09;3.93;;;1.47;;
50647;SDS011;36617;52.002;6.034;2023-01-19T13:20:45;4.47;;;1.50;;
50647;SDS011;36617;52.002;6.034;2023-01-19T13:25:46;3.85;;;1.40;;
50647;SDS011;36617;52.002;6.034;2023-01-19T13:28:13;3.63;;;1.20;;
50647;SDS011;36617;52.002;6.034;2023-01-19T13:30:45;4.05;;;1.40;;
50647;SDS011;36617;52.002;6.034;2023-01-19T13:33:17;3.67;;;1.38;;
50647;SDS011;36617;52.002;6.034;2023-01-19T13:35:53;4.32;;;1.40;;
50647;SDS011;36617;52.002;6.034;2023-01-19T13:38:20;3.50;;;1.20;;
50647;SDS011;36617;52.002;6.034;2023-01-19T13:40:45;4.93;;;1.50;;
50647;SDS011;36617;52.002;6.034;2023-01-19T13:43:14;3.03;;;1.33;;
50647;SDS011;36617;52.002;6.034;2023-01-19T13:45:40;4.03;;;1.30;;
50647;SDS011;36617;52.002;6.034;2023-01-19T13:48:11;3.00;;;1.30;;
50647;SDS011;36617;52.002;6.034;2023-01-19T13:50:38;4.38;;;1.50;;
50647;SDS011;36617;52.002;6.034;2023-01-19T13:53:15;4.30;;;1.43;;
50647;SDS011;36617;52.002;6.034;2023-01-19T13:55:40;3.60;;;1.40;;
50647;SDS011;36617;52.002;6.034;2023-01-19T13:58:17;4.47;;;1.57;;
50647;SDS011;36617;52.002;6.034;2023-01-19T14:00:44;4.43;;;1.48;;
50647;SDS011;36617;52.002;6.034;2023-01-19T14:05:36;2.90;;;1.27;;
50647;SDS011;36617;52.002;6.034;2023-01-19T14:10:37;3.78;;;1.38;;
50647;SDS011;36617;52.002;6.034;2023-01-19T14:13:13;3.65;;;1.27;;
50647;SDS011;36617;52.002;6.034;2023-01-19T14:15:39;3.97;;;1.30;;
50647;SDS011;36617;52.002;6.034;2023-01-19T14:20:54;3.78;;;1.35;;
50647;SDS011;36617;52.002;6.034;2023-01-19T14:26:04;2.90;;;1.17;;
50647;SDS011;36617;52.002;6.034;2023-01-19T14:28:34;3.40;;;1.20;;
50647;SDS011;36617;52.002;6.034;2023-01-19T14:31:03;3.05;;;1.20;;
50647;SDS011;36617;52.002;6.034;2023-01-19T14:33:33;3.35;;;1.13;;
50647;SDS011;36617;52.002;6.034;2023-01-19T14:38:48;3.72;;;1.20;;
50647;SDS011;36617;52.002;6.034;2023-01-19T14:41:25;2.65;;;1.10;;
50647;SDS011;36617;52.002;6.034;2023-01-19T14:43:51;3.35;;;1.30;;
50647;SDS011;36617;52.002;6.034;2023-01-19T14:46:19;3.90;;;1.10;;
50647;SDS011;36617;52.002;6.034;2023-01-19T14:48:45;3.27;;;1.20;;
50647;SDS011;36617;52.002;6.034;2023-01-19T14:51:11;4.18;;;1.25;;
50647;SDS011;36617;52.002;6.034;2023-01-19T14:53:39;2.90;;;1.05;;
50647;SDS011;36617;52.002;6.034;2023-01-19T14:56:10;2.97;;;1.20;;
50647;SDS011;36617;52.002;6.034;2023-01-19T14:58:35;3.13;;;1.07;;
50647;SDS011;36617;52.002;6.034;2023-01-19T15:01:00;3.00;;;1.10;;
50647;SDS011;36617;52.002;6.034;2023-01-19T15:03:26;3.53;;;1.20;;
50647;SDS011;36617;52.002;6.034;2023-01-19T15:05:53;3.55;;;1.20;;
50647;SDS011;36617;52.002;6.034;2023-01-19T15:08:23;3.40;;;1.10;;
50647;SDS011;36617;52.002;6.034;2023-01-19T15:10:49;4.20;;;1.20;;
50647;SDS011;36617;52.002;6.034;2023-01-19T15:13:15;3.03;;;1.10;;
50647;SDS011;36617;52.002;6.034;2023-01-19T15:15:42;3.85;;;1.20;;
50647;SDS011;36617;52.002;6.034;2023-01-19T15:18:07;2.90;;;1.30;;
50647;SDS011;36617;52.002;6.034;2023-01-19T15:20:37;2.90;;;1.20;;
50647;SDS011;36617;52.002;6.034;2023-01-19T15:23:02;2.90;;;1.20;;
50647;SDS011;36617;52.002;6.034;2023-01-19T15:25:27;3.33;;;1.10;;
50647;SDS011;36617;52.002;6.034;2023-01-19T15:27:56;3.65;;;1.33;;
50647;SDS011;36617;52.002;6.034;2023-01-19T15:30:23;3.23;;;1.10;;
50647;SDS011;36617;52.002;6.034;2023-01-19T15:32:51;4.05;;;1.20;;
50647;SDS011;36617;52.002;6.034;2023-01-19T15:35:20;3.67;;;1.50;;
50647;SDS011;36617;52.002;6.034;2023-01-19T15:37:46;3.17;;;1.27;;
50647;SDS011;36617;52.002;6.034;2023-01-19T15:40:11;3.22;;;1.27;;
50647;SDS011;36617;52.002;6.034;2023-01-19T15:42:37;3.50;;;1.30;;
50647;SDS011;36617;52.002;6.034;2023-01-19T15:45:02;2.50;;;1.17;;
50647;SDS011;36617;52.002;6.034;2023-01-19T15:47:41;2.67;;;1.10;;
50647;SDS011;36617;52.002;6.034;2023-01-19T15:50:06;2.80;;;1.20;;
50647;SDS011;36617;52.002;6.034;2023-01-19T15:52:31;2.47;;;1.13;;